Observations for OLBIA COSTA SMERALD, Italy (LIEO)

LIEO 242150Z 23012KT 9999 BKN020 22/13 Q1018
LIEO 242120Z 23013KT 9999 BKN020 22/13 Q1018
LIEO 242050Z 25011KT 9999 SCT025 22/13 Q1018
LIEO 242020Z 25010KT 9999 SCT030 22/12 Q1018
LIEO 241950Z 25010KT 9999 FEW030 22/12 Q1017
LIEO 241920Z 26010KT CAVOK 22/11 Q1017  
LIEO 241850Z 26009KT CAVOK 23/11 Q1017  
LIEO 241820Z 24011KT CAVOK 23/11 Q1016  
LIEO 241750Z 24011KT CAVOK 23/11 Q1015  
LIEO 241720Z 24015KT CAVOK 24/11 Q1015  
LIEO 241650Z 24011KT CAVOK 25/10 Q1015  
LIEO 241620Z 25014KT CAVOK 26/08 Q1014  
LIEO 241550Z 26016KT CAVOK 27/08 Q1014  
LIEO 241520Z 26017KT CAVOK 28/09 Q1014  
LIEO 241450Z 28018KT CAVOK 28/08 Q1014  
LIEO 241420Z 28017G27KT CAVOK 28/05 Q1015   
LIEO 241350Z 28021KT CAVOK 29/03 Q1015  
LIEO 241320Z 27014KT 240V300 CAVOK 29/08 Q1015  
LIEO 241250Z 27019G30KT 250V310 CAVOK 29/08 Q1015   
LIEO 241220Z 28020KT CAVOK 28/14 Q1015  
LIEO 241150Z 29020KT CAVOK 29/15 Q1015  
LIEO 241120Z 28020KT CAVOK 29/16 Q1015  
LIEO 241050Z 28020G33KT CAVOK 29/16 Q1015   
LIEO 241020Z 28019G31KT CAVOK 29/15 Q1016   
LIEO 240950Z 28018G38KT 250V310 CAVOK 29/17 Q1015   
LIEO 240920Z 27022G33KT CAVOK 29/17 Q1015   
LIEO 240850Z 27023G33KT CAVOK 29/18 Q1015   
LIEO 240820Z 25017KT CAVOK 29/18 Q1015  
LIEO 240750Z 24016KT 9999 FEW030 27/19 Q1014
LIEO 240720Z 24015KT CAVOK 27/20 Q1014  
LIEO 240650Z 25015KT CAVOK 26/20 Q1014  
LIEO 240620Z 24015KT CAVOK 25/20 Q1014  
LIEO 240550Z 24018KT CAVOK 25/21 Q1014  
LIEO 240520Z 24016KT CAVOK 24/21 Q1013  
LIEO 240450Z 24017KT CAVOK 24/20 Q1014  
LIEO 240420Z 24015KT CAVOK 24/20 Q1014  
LIEO 240350Z 24015KT CAVOK 24/20 Q1014  
LIEO 240320Z 25015KT CAVOK 24/20 Q1014  
LIEO 240250Z 25013KT CAVOK 23/19 Q1014  
LIEO 240220Z 24014KT CAVOK 23/19 Q1014  
LIEO 240150Z 24017KT CAVOK 23/19 Q1015  
LIEO 240120Z 24013KT CAVOK 23/19 Q1015  
LIEO 240050Z 24016KT CAVOK 23/19 Q1016  
LIEO 240020Z 23016KT CAVOK 23/19 Q1016  
LIEO 232350Z 23013KT CAVOK 23/19 Q1016  
LIEO 232320Z 23012KT CAVOK 23/19 Q1017  
LIEO 232250Z 24011KT CAVOK 23/19 Q1017  
LIEO 232220Z 24011KT CAVOK 23/19 Q1017  
LIEO 232150Z 24011KT CAVOK 23/19 Q1017  
LIEO 232120Z 23011KT CAVOK 23/19 Q1017